sensor_id;sensor_type;location;lat;lon;timestamp;temperature;humidity
19232;DHT22;9750;48.730;10.294;2023-07-13T00:02:01;19.40;99.90
19232;DHT22;9750;48.730;10.294;2023-07-13T00:04:28;19.50;99.90
19232;DHT22;9750;48.730;10.294;2023-07-13T00:06:55;19.50;99.90
19232;DHT22;9750;48.730;10.294;2023-07-13T00:09:23;19.50;99.90
19232;DHT22;9750;48.730;10.294;2023-07-13T00:11:52;19.50;99.90
19232;DHT22;9750;48.730;10.294;2023-07-13T00:14:20;19.40;99.90
19232;DHT22;9750;48.730;10.294;2023-07-13T00:16:49;19.40;99.90
19232;DHT22;9750;48.730;10.294;2023-07-13T00:19:16;19.40;99.90
19232;DHT22;9750;48.730;10.294;2023-07-13T00:21:43;19.30;99.90
19232;DHT22;9750;48.730;10.294;2023-07-13T00:24:12;19.30;99.90
19232;DHT22;9750;48.730;10.294;2023-07-13T00:26:40;19.30;99.90
19232;DHT22;9750;48.730;10.294;2023-07-13T00:29:11;19.30;99.90
19232;DHT22;9750;48.730;10.294;2023-07-13T00:31:38;19.30;99.90
19232;DHT22;9750;48.730;10.294;2023-07-13T00:34:07;19.20;99.90
19232;DHT22;9750;48.730;10.294;2023-07-13T00:36:34;19.20;99.90
19232;DHT22;9750;48.730;10.294;2023-07-13T00:39:02;19.20;99.90
19232;DHT22;9750;48.730;10.294;2023-07-13T00:41:30;19.10;99.90
19232;DHT22;9750;48.730;10.294;2023-07-13T00:43:58;19.10;99.90
19232;DHT22;9750;48.730;10.294;2023-07-13T00:46:27;19.10;99.90
19232;DHT22;9750;48.730;10.294;2023-07-13T00:48:58;19.00;99.90
19232;DHT22;9750;48.730;10.294;2023-07-13T00:51:32;19.00;99.90
19232;DHT22;9750;48.730;10.294;2023-07-13T00:54:05;19.00;99.90
19232;DHT22;9750;48.730;10.294;2023-07-13T00:56:34;19.00;99.90
19232;DHT22;9750;48.730;10.294;2023-07-13T00:59:02;18.90;99.90
19232;DHT22;9750;48.730;10.294;2023-07-13T01:01:30;18.90;99.90
19232;DHT22;9750;48.730;10.294;2023-07-13T01:03:58;18.90;99.90
19232;DHT22;9750;48.730;10.294;2023-07-13T01:06:25;18.90;99.90
19232;DHT22;9750;48.730;10.294;2023-07-13T01:08:55;18.90;99.90
19232;DHT22;9750;48.730;10.294;2023-07-13T01:11:23;18.90;97.90
19232;DHT22;9750;48.730;10.294;2023-07-13T01:13:50;18.80;99.70
19232;DHT22;9750;48.730;10.294;2023-07-13T01:16:23;18.80;98.80
19232;DHT22;9750;48.730;10.294;2023-07-13T01:18:51;18.80;98.10
19232;DHT22;9750;48.730;10.294;2023-07-13T01:21:20;18.80;98.30
19232;DHT22;9750;48.730;10.294;2023-07-13T01:23:47;18.80;98.40
19232;DHT22;9750;48.730;10.294;2023-07-13T01:26:14;18.80;98.30
19232;DHT22;9750;48.730;10.294;2023-07-13T01:28:41;18.80;98.50
19232;DHT22;9750;48.730;10.294;2023-07-13T01:31:09;18.70;98.50
19232;DHT22;9750;48.730;10.294;2023-07-13T01:33:37;18.70;98.70
19232;DHT22;9750;48.730;10.294;2023-07-13T01:36:05;18.70;98.60
19232;DHT22;9750;48.730;10.294;2023-07-13T01:38:35;18.60;98.50
19232;DHT22;9750;48.730;10.294;2023-07-13T01:41:03;18.60;98.30
19232;DHT22;9750;48.730;10.294;2023-07-13T01:43:30;18.60;98.20
19232;DHT22;9750;48.730;10.294;2023-07-13T01:45:58;18.60;98.30
19232;DHT22;9750;48.730;10.294;2023-07-13T01:48:25;18.50;98.20
19232;DHT22;9750;48.730;10.294;2023-07-13T01:50:52;18.50;98.10
19232;DHT22;9750;48.730;10.294;2023-07-13T01:53:19;18.50;98.50
19232;DHT22;9750;48.730;10.294;2023-07-13T01:55:49;18.50;98.40
19232;DHT22;9750;48.730;10.294;2023-07-13T01:58:16;18.50;96.60
19232;DHT22;9750;48.730;10.294;2023-07-13T02:00:43;18.40;96.20
19232;DHT22;9750;48.730;10.294;2023-07-13T02:03:10;18.40;97.30
19232;DHT22;9750;48.730;10.294;2023-07-13T02:05:40;18.40;95.90
19232;DHT22;9750;48.730;10.294;2023-07-13T02:08:07;18.40;95.50
19232;DHT22;9750;48.730;10.294;2023-07-13T02:10:34;18.30;95.10
19232;DHT22;9750;48.730;10.294;2023-07-13T02:13:05;18.30;95.40
19232;DHT22;9750;48.730;10.294;2023-07-13T02:15:33;18.30;95.80
19232;DHT22;9750;48.730;10.294;2023-07-13T02:18:00;18.30;95.20
19232;DHT22;9750;48.730;10.294;2023-07-13T02:20:29;18.30;95.40
19232;DHT22;9750;48.730;10.294;2023-07-13T02:22:56;18.20;94.00
19232;DHT22;9750;48.730;10.294;2023-07-13T02:25:23;18.20;94.50
19232;DHT22;9750;48.730;10.294;2023-07-13T02:27:52;18.20;94.80
19232;DHT22;9750;48.730;10.294;2023-07-13T02:30:21;18.10;95.00
19232;DHT22;9750;48.730;10.294;2023-07-13T02:32:50;18.10;94.40
19232;DHT22;9750;48.730;10.294;2023-07-13T02:35:17;18.00;94.20
19232;DHT22;9750;48.730;10.294;2023-07-13T02:37:45;18.00;95.10
19232;DHT22;9750;48.730;10.294;2023-07-13T02:40:12;18.00;94.60
19232;DHT22;9750;48.730;10.294;2023-07-13T02:42:39;18.00;94.10
19232;DHT22;9750;48.730;10.294;2023-07-13T02:45:08;17.90;94.40
19232;DHT22;9750;48.730;10.294;2023-07-13T02:47:37;17.90;94.40
19232;DHT22;9750;48.730;10.294;2023-07-13T02:50:05;17.90;94.40
19232;DHT22;9750;48.730;10.294;2023-07-13T02:52:32;17.90;95.10
19232;DHT22;9750;48.730;10.294;2023-07-13T02:55:00;17.80;94.70
19232;DHT22;9750;48.730;10.294;2023-07-13T02:57:27;17.80;94.60
19232;DHT22;9750;48.730;10.294;2023-07-13T02:59:54;17.80;95.10
19232;DHT22;9750;48.730;10.294;2023-07-13T03:02:21;17.80;94.90
19232;DHT22;9750;48.730;10.294;2023-07-13T03:04:50;17.80;94.30
19232;DHT22;9750;48.730;10.294;2023-07-13T03:07:17;17.80;94.00
19232;DHT22;9750;48.730;10.294;2023-07-13T03:09:44;17.80;94.10
19232;DHT22;9750;48.730;10.294;2023-07-13T03:12:12;17.80;94.00
19232;DHT22;9750;48.730;10.294;2023-07-13T03:14:39;17.70;94.60
19232;DHT22;9750;48.730;10.294;2023-07-13T03:17:06;17.70;94.70
19232;DHT22;9750;48.730;10.294;2023-07-13T03:19:33;17.70;94.80
19232;DHT22;9750;48.730;10.294;2023-07-13T03:22:02;17.70;95.70
19232;DHT22;9750;48.730;10.294;2023-07-13T03:24:29;17.70;95.80
19232;DHT22;9750;48.730;10.294;2023-07-13T03:26:57;17.70;95.40
19232;DHT22;9750;48.730;10.294;2023-07-13T03:29:24;17.70;93.90
19232;DHT22;9750;48.730;10.294;2023-07-13T03:31:51;17.70;94.00
19232;DHT22;9750;48.730;10.294;2023-07-13T03:34:18;17.60;93.90
19232;DHT22;9750;48.730;10.294;2023-07-13T03:36:46;17.60;93.60
19232;DHT22;9750;48.730;10.294;2023-07-13T03:39:14;17.60;93.70
19232;DHT22;9750;48.730;10.294;2023-07-13T03:41:42;17.50;93.90
19232;DHT22;9750;48.730;10.294;2023-07-13T03:44:11;17.50;93.70
19232;DHT22;9750;48.730;10.294;2023-07-13T03:46:38;17.50;93.20
19232;DHT22;9750;48.730;10.294;2023-07-13T03:49:05;17.50;93.40
19232;DHT22;9750;48.730;10.294;2023-07-13T03:51:32;17.40;93.00
19232;DHT22;9750;48.730;10.294;2023-07-13T03:54:00;17.40;93.50
19232;DHT22;9750;48.730;10.294;2023-07-13T03:56:30;17.30;93.30
19232;DHT22;9750;48.730;10.294;2023-07-13T03:58:58;17.40;93.20
19232;DHT22;9750;48.730;10.294;2023-07-13T04:01:25;17.30;93.00
19232;DHT22;9750;48.730;10.294;2023-07-13T04:03:53;17.30;93.30
19232;DHT22;9750;48.730;10.294;2023-07-13T04:06:21;17.30;93.20
19232;DHT22;9750;48.730;10.294;2023-07-13T04:08:50;17.30;92.90
19232;DHT22;9750;48.730;10.294;2023-07-13T04:11:18;17.30;92.60
19232;DHT22;9750;48.730;10.294;2023-07-13T04:13:48;17.30;92.70
19232;DHT22;9750;48.730;10.294;2023-07-13T04:16:17;17.30;92.80
19232;DHT22;9750;48.730;10.294;2023-07-13T04:18:45;17.30;93.00
19232;DHT22;9750;48.730;10.294;2023-07-13T04:21:13;17.40;93.00
19232;DHT22;9750;48.730;10.294;2023-07-13T04:23:40;17.40;93.00
19232;DHT22;9750;48.730;10.294;2023-07-13T04:26:08;17.40;92.80
19232;DHT22;9750;48.730;10.294;2023-07-13T04:28:35;17.40;92.30
19232;DHT22;9750;48.730;10.294;2023-07-13T04:31:04;17.40;92.10
19232;DHT22;9750;48.730;10.294;2023-07-13T04:33:31;17.50;92.20
19232;DHT22;9750;48.730;10.294;2023-07-13T04:35:59;17.50;91.90
19232;DHT22;9750;48.730;10.294;2023-07-13T04:38:29;17.60;92.00
19232;DHT22;9750;48.730;10.294;2023-07-13T04:40:58;17.60;92.20
19232;DHT22;9750;48.730;10.294;2023-07-13T04:43:25;17.60;92.40
19232;DHT22;9750;48.730;10.294;2023-07-13T04:45:53;17.70;92.70
19232;DHT22;9750;48.730;10.294;2023-07-13T04:48:22;17.70;92.80
19232;DHT22;9750;48.730;10.294;2023-07-13T04:50:54;17.80;92.60
19232;DHT22;9750;48.730;10.294;2023-07-13T04:53:22;17.80;92.70
19232;DHT22;9750;48.730;10.294;2023-07-13T04:55:49;17.90;93.20
19232;DHT22;9750;48.730;10.294;2023-07-13T04:58:20;17.90;93.60
19232;DHT22;9750;48.730;10.294;2023-07-13T05:00:48;18.00;93.40
19232;DHT22;9750;48.730;10.294;2023-07-13T05:03:15;18.10;93.10
19232;DHT22;9750;48.730;10.294;2023-07-13T05:05:53;18.10;92.00
19232;DHT22;9750;48.730;10.294;2023-07-13T05:08:21;18.20;92.10
19232;DHT22;9750;48.730;10.294;2023-07-13T05:10:48;18.20;92.60
19232;DHT22;9750;48.730;10.294;2023-07-13T05:13:15;18.20;91.90
19232;DHT22;9750;48.730;10.294;2023-07-13T05:15:43;18.20;92.20
19232;DHT22;9750;48.730;10.294;2023-07-13T05:18:10;18.20;92.00
19232;DHT22;9750;48.730;10.294;2023-07-13T05:20:37;18.20;91.80
19232;DHT22;9750;48.730;10.294;2023-07-13T05:23:07;18.20;91.60
19232;DHT22;9750;48.730;10.294;2023-07-13T05:25:34;18.20;91.80
19232;DHT22;9750;48.730;10.294;2023-07-13T05:28:01;18.20;91.80
19232;DHT22;9750;48.730;10.294;2023-07-13T05:30:28;18.10;91.50
19232;DHT22;9750;48.730;10.294;2023-07-13T05:32:56;18.20;91.70
19232;DHT22;9750;48.730;10.294;2023-07-13T05:35:25;18.20;92.10
19232;DHT22;9750;48.730;10.294;2023-07-13T05:37:52;18.20;92.40
19232;DHT22;9750;48.730;10.294;2023-07-13T05:40:21;18.20;91.80
19232;DHT22;9750;48.730;10.294;2023-07-13T05:42:48;18.20;92.30
19232;DHT22;9750;48.730;10.294;2023-07-13T05:45:15;18.20;92.10
19232;DHT22;9750;48.730;10.294;2023-07-13T05:47:43;18.20;91.60
19232;DHT22;9750;48.730;10.294;2023-07-13T05:50:10;18.30;92.40
19232;DHT22;9750;48.730;10.294;2023-07-13T05:52:37;18.30;91.40
19232;DHT22;9750;48.730;10.294;2023-07-13T05:55:05;18.40;92.70
19232;DHT22;9750;48.730;10.294;2023-07-13T05:57:40;18.40;92.00
19232;DHT22;9750;48.730;10.294;2023-07-13T06:00:09;18.40;91.60
19232;DHT22;9750;48.730;10.294;2023-07-13T06:02:36;18.50;92.40
19232;DHT22;9750;48.730;10.294;2023-07-13T06:05:04;18.50;92.10
19232;DHT22;9750;48.730;10.294;2023-07-13T06:07:31;18.60;92.60
19232;DHT22;9750;48.730;10.294;2023-07-13T06:09:59;18.70;91.70
19232;DHT22;9750;48.730;10.294;2023-07-13T06:12:26;18.70;92.20
19232;DHT22;9750;48.730;10.294;2023-07-13T06:14:54;18.70;90.90
19232;DHT22;9750;48.730;10.294;2023-07-13T06:17:22;18.70;91.20
19232;DHT22;9750;48.730;10.294;2023-07-13T06:19:49;18.70;91.00
19232;DHT22;9750;48.730;10.294;2023-07-13T06:22:16;18.80;91.10
19232;DHT22;9750;48.730;10.294;2023-07-13T06:24:43;18.80;91.30
19232;DHT22;9750;48.730;10.294;2023-07-13T06:27:11;18.80;91.30
19232;DHT22;9750;48.730;10.294;2023-07-13T06:29:38;18.90;91.50
19232;DHT22;9750;48.730;10.294;2023-07-13T06:32:08;19.00;91.80
19232;DHT22;9750;48.730;10.294;2023-07-13T06:34:35;19.10;91.30
19232;DHT22;9750;48.730;10.294;2023-07-13T06:37:03;19.20;91.60
19232;DHT22;9750;48.730;10.294;2023-07-13T06:39:30;19.20;91.30
19232;DHT22;9750;48.730;10.294;2023-07-13T06:41:57;19.20;91.30
19232;DHT22;9750;48.730;10.294;2023-07-13T06:44:23;19.20;91.60
19232;DHT22;9750;48.730;10.294;2023-07-13T06:46:51;19.20;91.30
19232;DHT22;9750;48.730;10.294;2023-07-13T06:49:19;19.20;91.60
19232;DHT22;9750;48.730;10.294;2023-07-13T06:51:47;19.30;91.10
19232;DHT22;9750;48.730;10.294;2023-07-13T06:54:14;19.30;91.50
19232;DHT22;9750;48.730;10.294;2023-07-13T06:56:41;19.40;90.40
19232;DHT22;9750;48.730;10.294;2023-07-13T06:59:08;19.40;90.40
19232;DHT22;9750;48.730;10.294;2023-07-13T07:01:36;19.40;90.40
19232;DHT22;9750;48.730;10.294;2023-07-13T07:04:03;19.40;90.40
19232;DHT22;9750;48.730;10.294;2023-07-13T07:06:32;19.50;91.00
19232;DHT22;9750;48.730;10.294;2023-07-13T07:08:59;19.40;89.50
19232;DHT22;9750;48.730;10.294;2023-07-13T07:11:26;19.40;89.20
19232;DHT22;9750;48.730;10.294;2023-07-13T07:13:54;19.40;89.60
19232;DHT22;9750;48.730;10.294;2023-07-13T07:16:22;19.40;89.50
19232;DHT22;9750;48.730;10.294;2023-07-13T07:18:49;19.50;86.80
19232;DHT22;9750;48.730;10.294;2023-07-13T07:21:16;19.60;87.70
19232;DHT22;9750;48.730;10.294;2023-07-13T07:23:46;19.80;86.50
19232;DHT22;9750;48.730;10.294;2023-07-13T07:26:13;19.90;85.40
19232;DHT22;9750;48.730;10.294;2023-07-13T07:28:40;20.00;84.40
19232;DHT22;9750;48.730;10.294;2023-07-13T07:31:08;20.00;85.80
19232;DHT22;9750;48.730;10.294;2023-07-13T07:33:35;20.00;84.00
19232;DHT22;9750;48.730;10.294;2023-07-13T07:36:03;20.10;85.20
19232;DHT22;9750;48.730;10.294;2023-07-13T07:38:30;20.10;83.60
19232;DHT22;9750;48.730;10.294;2023-07-13T07:41:02;20.20;82.70
19232;DHT22;9750;48.730;10.294;2023-07-13T07:43:29;20.20;79.00
19232;DHT22;9750;48.730;10.294;2023-07-13T07:45:57;20.20;79.30
19232;DHT22;9750;48.730;10.294;2023-07-13T07:48:24;20.20;79.40
19232;DHT22;9750;48.730;10.294;2023-07-13T07:50:51;20.30;79.00
19232;DHT22;9750;48.730;10.294;2023-07-13T07:53:18;20.30;78.70
19232;DHT22;9750;48.730;10.294;2023-07-13T07:55:46;20.30;77.70
19232;DHT22;9750;48.730;10.294;2023-07-13T07:58:16;20.20;76.70
19232;DHT22;9750;48.730;10.294;2023-07-13T08:00:43;20.30;77.00
19232;DHT22;9750;48.730;10.294;2023-07-13T08:03:11;20.30;77.50
19232;DHT22;9750;48.730;10.294;2023-07-13T08:05:38;20.30;77.40
19232;DHT22;9750;48.730;10.294;2023-07-13T08:08:05;20.20;78.80
19232;DHT22;9750;48.730;10.294;2023-07-13T08:10:35;20.30;79.00
19232;DHT22;9750;48.730;10.294;2023-07-13T08:13:02;20.30;76.70
19232;DHT22;9750;48.730;10.294;2023-07-13T08:15:31;20.30;77.60
19232;DHT22;9750;48.730;10.294;2023-07-13T08:17:58;20.30;79.50
19232;DHT22;9750;48.730;10.294;2023-07-13T08:20:25;20.30;75.20
19232;DHT22;9750;48.730;10.294;2023-07-13T08:22:52;20.40;77.40
19232;DHT22;9750;48.730;10.294;2023-07-13T08:25:20;20.50;79.70
19232;DHT22;9750;48.730;10.294;2023-07-13T08:27:48;20.50;79.20
19232;DHT22;9750;48.730;10.294;2023-07-13T08:30:15;20.40;78.20
19232;DHT22;9750;48.730;10.294;2023-07-13T08:32:44;20.30;74.80
19232;DHT22;9750;48.730;10.294;2023-07-13T08:35:11;20.20;73.50
19232;DHT22;9750;48.730;10.294;2023-07-13T08:37:39;20.20;75.20
19232;DHT22;9750;48.730;10.294;2023-07-13T08:40:08;20.30;76.10
19232;DHT22;9750;48.730;10.294;2023-07-13T08:42:39;20.30;75.20
19232;DHT22;9750;48.730;10.294;2023-07-13T08:45:17;20.30;75.20
19232;DHT22;9750;48.730;10.294;2023-07-13T08:47:50;20.30;75.20
19232;DHT22;9750;48.730;10.294;2023-07-13T08:50:24;20.30;77.10
19232;DHT22;9750;48.730;10.294;2023-07-13T08:52:53;20.20;76.20
19232;DHT22;9750;48.730;10.294;2023-07-13T08:55:26;20.20;75.50
19232;DHT22;9750;48.730;10.294;2023-07-13T08:57:59;20.10;75.30
19232;DHT22;9750;48.730;10.294;2023-07-13T09:00:35;20.20;76.20
19232;DHT22;9750;48.730;10.294;2023-07-13T09:03:16;20.20;76.60
19232;DHT22;9750;48.730;10.294;2023-07-13T09:05:51;20.30;76.20
19232;DHT22;9750;48.730;10.294;2023-07-13T09:08:44;20.30;74.60
19232;DHT22;9750;48.730;10.294;2023-07-13T09:11:27;20.40;75.60
19232;DHT22;9750;48.730;10.294;2023-07-13T09:14:02;20.50;75.30
19232;DHT22;9750;48.730;10.294;2023-07-13T09:16:33;20.70;75.50
19232;DHT22;9750;48.730;10.294;2023-07-13T09:19:06;20.70;74.50
19232;DHT22;9750;48.730;10.294;2023-07-13T09:21:37;20.70;75.70
19232;DHT22;9750;48.730;10.294;2023-07-13T09:24:27;20.70;76.00
19232;DHT22;9750;48.730;10.294;2023-07-13T09:26:55;20.80;78.90
19232;DHT22;9750;48.730;10.294;2023-07-13T09:29:29;20.90;75.60
19232;DHT22;9750;48.730;10.294;2023-07-13T09:32:02;20.90;74.60
19232;DHT22;9750;48.730;10.294;2023-07-13T09:34:32;20.90;76.50
19232;DHT22;9750;48.730;10.294;2023-07-13T09:37:00;20.80;74.60
19232;DHT22;9750;48.730;10.294;2023-07-13T09:39:30;20.90;74.70
19232;DHT22;9750;48.730;10.294;2023-07-13T09:42:06;20.90;74.30
19232;DHT22;9750;48.730;10.294;2023-07-13T09:44:36;21.00;75.90
19232;DHT22;9750;48.730;10.294;2023-07-13T09:47:15;21.00;76.60
19232;DHT22;9750;48.730;10.294;2023-07-13T09:49:45;21.00;75.30
19232;DHT22;9750;48.730;10.294;2023-07-13T09:52:14;21.00;74.00
19232;DHT22;9750;48.730;10.294;2023-07-13T09:54:45;21.00;75.70
19232;DHT22;9750;48.730;10.294;2023-07-13T09:57:16;21.10;75.80
19232;DHT22;9750;48.730;10.294;2023-07-13T09:59:45;21.20;75.50
19232;DHT22;9750;48.730;10.294;2023-07-13T10:02:33;21.30;74.60
19232;DHT22;9750;48.730;10.294;2023-07-13T10:05:05;21.40;74.20
19232;DHT22;9750;48.730;10.294;2023-07-13T10:07:43;21.60;75.10
19232;DHT22;9750;48.730;10.294;2023-07-13T10:10:16;21.80;73.20
19232;DHT22;9750;48.730;10.294;2023-07-13T10:12:44;21.80;73.00
19232;DHT22;9750;48.730;10.294;2023-07-13T10:15:15;21.80;73.30
19232;DHT22;9750;48.730;10.294;2023-07-13T10:17:44;21.80;74.00
19232;DHT22;9750;48.730;10.294;2023-07-13T10:20:14;21.90;74.70
19232;DHT22;9750;48.730;10.294;2023-07-13T10:22:44;22.10;74.70
19232;DHT22;9750;48.730;10.294;2023-07-13T10:25:17;22.10;72.10
19232;DHT22;9750;48.730;10.294;2023-07-13T10:27:46;22.20;71.70
19232;DHT22;9750;48.730;10.294;2023-07-13T10:30:19;22.30;72.70
19232;DHT22;9750;48.730;10.294;2023-07-13T10:32:48;22.40;72.80
19232;DHT22;9750;48.730;10.294;2023-07-13T10:35:19;22.50;72.30
19232;DHT22;9750;48.730;10.294;2023-07-13T10:38:04;22.50;70.70
19232;DHT22;9750;48.730;10.294;2023-07-13T10:40:36;22.60;73.20
19232;DHT22;9750;48.730;10.294;2023-07-13T10:43:09;22.70;73.00
19232;DHT22;9750;48.730;10.294;2023-07-13T10:45:39;22.70;71.00
19232;DHT22;9750;48.730;10.294;2023-07-13T10:48:11;22.70;71.40
19232;DHT22;9750;48.730;10.294;2023-07-13T10:50:44;22.60;68.80
19232;DHT22;9750;48.730;10.294;2023-07-13T10:53:20;22.50;66.50
19232;DHT22;9750;48.730;10.294;2023-07-13T10:55:59;22.40;68.40
19232;DHT22;9750;48.730;10.294;2023-07-13T10:58:33;22.40;66.80
19232;DHT22;9750;48.730;10.294;2023-07-13T11:01:07;22.40;67.70
19232;DHT22;9750;48.730;10.294;2023-07-13T11:03:37;22.50;68.90
19232;DHT22;9750;48.730;10.294;2023-07-13T11:06:09;22.60;68.20
19232;DHT22;9750;48.730;10.294;2023-07-13T11:08:51;22.60;67.10
19232;DHT22;9750;48.730;10.294;2023-07-13T11:11:34;22.70;67.30
19232;DHT22;9750;48.730;10.294;2023-07-13T11:14:03;22.70;66.90
19232;DHT22;9750;48.730;10.294;2023-07-13T11:16:43;22.80;67.90
19232;DHT22;9750;48.730;10.294;2023-07-13T11:22:22;23.10;68.60
19232;DHT22;9750;48.730;10.294;2023-07-13T11:24:54;23.10;65.90
19232;DHT22;9750;48.730;10.294;2023-07-13T11:27:33;23.00;65.60
19232;DHT22;9750;48.730;10.294;2023-07-13T11:33:16;22.80;64.80
19232;DHT22;9750;48.730;10.294;2023-07-13T11:36:04;22.70;64.90
19232;DHT22;9750;48.730;10.294;2023-07-13T11:38:37;23.00;67.00
19232;DHT22;9750;48.730;10.294;2023-07-13T11:41:12;23.00;64.80
19232;DHT22;9750;48.730;10.294;2023-07-13T11:43:41;23.20;67.40
19232;DHT22;9750;48.730;10.294;2023-07-13T11:46:15;23.40;65.20
19232;DHT22;9750;48.730;10.294;2023-07-13T11:48:44;23.60;68.10
19232;DHT22;9750;48.730;10.294;2023-07-13T11:51:23;23.80;67.20
19232;DHT22;9750;48.730;10.294;2023-07-13T11:53:55;23.90;62.40
19232;DHT22;9750;48.730;10.294;2023-07-13T11:56:24;23.80;62.90
19232;DHT22;9750;48.730;10.294;2023-07-13T11:58:52;23.70;61.70
19232;DHT22;9750;48.730;10.294;2023-07-13T12:01:23;23.60;62.50
19232;DHT22;9750;48.730;10.294;2023-07-13T12:03:52;23.60;62.80
19232;DHT22;9750;48.730;10.294;2023-07-13T12:06:25;23.60;64.10
19232;DHT22;9750;48.730;10.294;2023-07-13T12:08:58;23.60;63.20
19232;DHT22;9750;48.730;10.294;2023-07-13T12:11:27;23.40;63.50
19232;DHT22;9750;48.730;10.294;2023-07-13T12:13:54;23.30;62.90
19232;DHT22;9750;48.730;10.294;2023-07-13T12:16:26;23.40;62.90
19232;DHT22;9750;48.730;10.294;2023-07-13T12:18:54;23.40;63.90
19232;DHT22;9750;48.730;10.294;2023-07-13T12:21:27;23.40;64.30
19232;DHT22;9750;48.730;10.294;2023-07-13T12:23:58;23.40;62.40
19232;DHT22;9750;48.730;10.294;2023-07-13T12:26:28;23.50;63.60
19232;DHT22;9750;48.730;10.294;2023-07-13T12:28:56;23.60;63.10
19232;DHT22;9750;48.730;10.294;2023-07-13T12:31:33;23.60;61.90
19232;DHT22;9750;48.730;10.294;2023-07-13T12:34:03;23.70;65.00
19232;DHT22;9750;48.730;10.294;2023-07-13T12:36:34;23.80;61.20
19232;DHT22;9750;48.730;10.294;2023-07-13T12:39:11;23.90;62.70
19232;DHT22;9750;48.730;10.294;2023-07-13T12:41:39;24.00;61.40
19232;DHT22;9750;48.730;10.294;2023-07-13T12:44:10;24.20;59.30
19232;DHT22;9750;48.730;10.294;2023-07-13T12:46:38;24.20;60.10
19232;DHT22;9750;48.730;10.294;2023-07-13T12:49:07;24.30;61.20
19232;DHT22;9750;48.730;10.294;2023-07-13T12:51:35;24.30;61.90
19232;DHT22;9750;48.730;10.294;2023-07-13T12:54:16;24.30;64.00
19232;DHT22;9750;48.730;10.294;2023-07-13T12:56:44;24.30;61.70
19232;DHT22;9750;48.730;10.294;2023-07-13T12:59:18;24.30;59.90
19232;DHT22;9750;48.730;10.294;2023-07-13T13:01:46;24.30;61.90
19232;DHT22;9750;48.730;10.294;2023-07-13T13:04:15;24.50;63.00
19232;DHT22;9750;48.730;10.294;2023-07-13T13:06:47;24.40;61.20
19232;DHT22;9750;48.730;10.294;2023-07-13T13:09:17;24.50;61.00
19232;DHT22;9750;48.730;10.294;2023-07-13T13:11:46;24.40;59.30
19232;DHT22;9750;48.730;10.294;2023-07-13T13:14:13;24.40;59.80
19232;DHT22;9750;48.730;10.294;2023-07-13T13:16:47;24.20;62.20
19232;DHT22;9750;48.730;10.294;2023-07-13T13:19:17;24.30;60.50
19232;DHT22;9750;48.730;10.294;2023-07-13T13:21:45;24.50;63.00
19232;DHT22;9750;48.730;10.294;2023-07-13T13:24:15;24.60;61.70
19232;DHT22;9750;48.730;10.294;2023-07-13T13:26:44;24.70;62.10
19232;DHT22;9750;48.730;10.294;2023-07-13T13:29:13;24.80;63.10
19232;DHT22;9750;48.730;10.294;2023-07-13T13:31:42;24.70;60.10
19232;DHT22;9750;48.730;10.294;2023-07-13T13:34:11;24.70;59.90
19232;DHT22;9750;48.730;10.294;2023-07-13T13:36:40;24.70;60.10
19232;DHT22;9750;48.730;10.294;2023-07-13T13:39:21;24.80;61.90
19232;DHT22;9750;48.730;10.294;2023-07-13T13:41:49;24.80;62.10
19232;DHT22;9750;48.730;10.294;2023-07-13T13:44:17;24.90;60.70
19232;DHT22;9750;48.730;10.294;2023-07-13T13:46:46;24.90;59.60
19232;DHT22;9750;48.730;10.294;2023-07-13T13:49:15;25.00;60.40
19232;DHT22;9750;48.730;10.294;2023-07-13T13:51:44;25.00;58.80
19232;DHT22;9750;48.730;10.294;2023-07-13T13:54:12;25.10;60.70
19232;DHT22;9750;48.730;10.294;2023-07-13T13:56:43;25.10;58.80
19232;DHT22;9750;48.730;10.294;2023-07-13T13:59:10;25.20;60.70
19232;DHT22;9750;48.730;10.294;2023-07-13T14:01:38;25.20;57.70
19232;DHT22;9750;48.730;10.294;2023-07-13T14:04:06;25.20;58.60
19232;DHT22;9750;48.730;10.294;2023-07-13T14:06:34;25.10;58.50
19232;DHT22;9750;48.730;10.294;2023-07-13T14:09:02;25.00;58.20
19232;DHT22;9750;48.730;10.294;2023-07-13T14:11:31;25.00;58.60
19232;DHT22;9750;48.730;10.294;2023-07-13T14:14:01;25.10;59.40
19232;DHT22;9750;48.730;10.294;2023-07-13T14:16:31;25.20;60.50
19232;DHT22;9750;48.730;10.294;2023-07-13T14:19:00;25.30;59.20
19232;DHT22;9750;48.730;10.294;2023-07-13T14:21:29;25.30;59.20
19232;DHT22;9750;48.730;10.294;2023-07-13T14:23:56;25.40;58.90
19232;DHT22;9750;48.730;10.294;2023-07-13T14:26:25;25.50;59.40
19232;DHT22;9750;48.730;10.294;2023-07-13T14:28:54;25.50;58.70
19232;DHT22;9750;48.730;10.294;2023-07-13T14:31:27;25.50;59.00
19232;DHT22;9750;48.730;10.294;2023-07-13T14:33:55;25.60;60.10
19232;DHT22;9750;48.730;10.294;2023-07-13T14:36:27;25.60;59.40
19232;DHT22;9750;48.730;10.294;2023-07-13T14:38:56;25.60;59.50
19232;DHT22;9750;48.730;10.294;2023-07-13T14:41:24;25.60;60.30
19232;DHT22;9750;48.730;10.294;2023-07-13T14:43:51;25.60;60.20
19232;DHT22;9750;48.730;10.294;2023-07-13T14:46:28;25.60;60.10
19232;DHT22;9750;48.730;10.294;2023-07-13T14:49:01;25.40;59.00
19232;DHT22;9750;48.730;10.294;2023-07-13T14:51:30;25.30;60.00
19232;DHT22;9750;48.730;10.294;2023-07-13T14:54:00;25.20;60.90
19232;DHT22;9750;48.730;10.294;2023-07-13T14:56:28;25.10;60.70
19232;DHT22;9750;48.730;10.294;2023-07-13T14:58:55;25.00;60.30
19232;DHT22;9750;48.730;10.294;2023-07-13T15:01:22;25.10;60.80
19232;DHT22;9750;48.730;10.294;2023-07-13T15:03:52;25.00;59.70
19232;DHT22;9750;48.730;10.294;2023-07-13T15:06:20;25.10;60.20
19232;DHT22;9750;48.730;10.294;2023-07-13T15:08:47;25.30;60.50
19232;DHT22;9750;48.730;10.294;2023-07-13T15:11:16;25.40;60.50
19232;DHT22;9750;48.730;10.294;2023-07-13T15:13:44;25.60;58.60
19232;DHT22;9750;48.730;10.294;2023-07-13T15:16:16;25.60;58.80
19232;DHT22;9750;48.730;10.294;2023-07-13T15:18:45;25.50;58.60
19232;DHT22;9750;48.730;10.294;2023-07-13T15:21:17;25.50;58.50
19232;DHT22;9750;48.730;10.294;2023-07-13T15:23:46;25.60;60.30
19232;DHT22;9750;48.730;10.294;2023-07-13T15:26:14;25.60;59.90
19232;DHT22;9750;48.730;10.294;2023-07-13T15:28:42;25.50;58.90
19232;DHT22;9750;48.730;10.294;2023-07-13T15:31:19;25.40;58.80
19232;DHT22;9750;48.730;10.294;2023-07-13T15:33:47;25.30;60.10
19232;DHT22;9750;48.730;10.294;2023-07-13T15:36:17;25.40;59.80
19232;DHT22;9750;48.730;10.294;2023-07-13T15:38:45;25.40;58.40
19232;DHT22;9750;48.730;10.294;2023-07-13T15:41:18;25.30;58.80
19232;DHT22;9750;48.730;10.294;2023-07-13T15:43:46;25.30;59.60
19232;DHT22;9750;48.730;10.294;2023-07-13T15:46:13;25.10;58.90
19232;DHT22;9750;48.730;10.294;2023-07-13T15:48:41;25.20;59.40
19232;DHT22;9750;48.730;10.294;2023-07-13T15:51:14;25.30;60.70